sensor_id;sensor_type;location;lat;lon;timestamp;pressure;altitude;pressure_sealevel;temperature;humidity
58239;BME280;44037;55.638;37.356;2023-02-11T00:00:48;99067.00;;;-1.78;77.70
58239;BME280;44037;55.638;37.356;2023-02-11T00:03:16;99070.31;;;-1.79;77.65
58239;BME280;44037;55.638;37.356;2023-02-11T00:05:43;99060.72;;;-1.84;77.67
58239;BME280;44037;55.638;37.356;2023-02-11T00:08:10;99074.22;;;-1.86;77.90
58239;BME280;44037;55.638;37.356;2023-02-11T00:10:41;99067.25;;;-1.90;78.13
58239;BME280;44037;55.638;37.356;2023-02-11T00:13:10;99063.53;;;-1.96;77.48
58239;BME280;44037;55.638;37.356;2023-02-11T00:15:39;99063.13;;;-2.04;77.82
58239;BME280;44037;55.638;37.356;2023-02-11T00:18:06;99068.22;;;-2.04;78.36
58239;BME280;44037;55.638;37.356;2023-02-11T00:20:33;99057.03;;;-2.08;77.86
58239;BME280;44037;55.638;37.356;2023-02-11T00:23:00;99060.22;;;-2.12;78.42
58239;BME280;44037;55.638;37.356;2023-02-11T00:25:27;99063.53;;;-2.13;78.65
58239;BME280;44037;55.638;37.356;2023-02-11T00:27:54;99064.19;;;-2.17;78.76
58239;BME280;44037;55.638;37.356;2023-02-11T00:30:21;99063.25;;;-2.19;78.43
58239;BME280;44037;55.638;37.356;2023-02-11T00:32:50;99067.31;;;-2.23;78.81
58239;BME280;44037;55.638;37.356;2023-02-11T00:35:17;99076.50;;;-2.25;78.33
58239;BME280;44037;55.638;37.356;2023-02-11T00:37:43;99065.31;;;-2.28;79.09
58239;BME280;44037;55.638;37.356;2023-02-11T00:40:11;99073.78;;;-2.28;79.13
58239;BME280;44037;55.638;37.356;2023-02-11T00:42:40;99066.97;;;-2.29;79.08
58239;BME280;44037;55.638;37.356;2023-02-11T00:45:07;99072.94;;;-2.28;79.01
58239;BME280;44037;55.638;37.356;2023-02-11T00:47:35;99073.72;;;-2.29;79.33
58239;BME280;44037;55.638;37.356;2023-02-11T00:50:04;99084.66;;;-2.30;79.81
58239;BME280;44037;55.638;37.356;2023-02-11T00:52:32;99082.75;;;-2.35;79.37
58239;BME280;44037;55.638;37.356;2023-02-11T00:54:59;99085.06;;;-2.39;79.43
58239;BME280;44037;55.638;37.356;2023-02-11T00:57:26;99079.13;;;-2.40;79.74
58239;BME280;44037;55.638;37.356;2023-02-11T00:59:54;99089.28;;;-2.40;79.47
58239;BME280;44037;55.638;37.356;2023-02-11T01:02:21;99081.41;;;-2.44;79.60
58239;BME280;44037;55.638;37.356;2023-02-11T01:04:48;99087.13;;;-2.49;79.34
58239;BME280;44037;55.638;37.356;2023-02-11T01:07:16;99090.34;;;-2.51;79.55
58239;BME280;44037;55.638;37.356;2023-02-11T01:09:43;99097.97;;;-2.51;79.77
58239;BME280;44037;55.638;37.356;2023-02-11T01:12:10;99098.78;;;-2.52;79.93
58239;BME280;44037;55.638;37.356;2023-02-11T01:14:37;99097.03;;;-2.53;79.89
58239;BME280;44037;55.638;37.356;2023-02-11T01:17:04;99100.38;;;-2.54;79.66
58239;BME280;44037;55.638;37.356;2023-02-11T01:19:31;99102.13;;;-2.53;80.04
58239;BME280;44037;55.638;37.356;2023-02-11T01:21:59;99107.97;;;-2.54;79.93
58239;BME280;44037;55.638;37.356;2023-02-11T01:24:27;99113.19;;;-2.51;80.48
58239;BME280;44037;55.638;37.356;2023-02-11T01:26:54;99119.94;;;-2.52;80.01
58239;BME280;44037;55.638;37.356;2023-02-11T01:29:21;99108.94;;;-2.52;79.97
58239;BME280;44037;55.638;37.356;2023-02-11T01:31:49;99117.34;;;-2.53;80.27
58239;BME280;44037;55.638;37.356;2023-02-11T01:34:16;99113.84;;;-2.55;79.60
58239;BME280;44037;55.638;37.356;2023-02-11T01:36:43;99116.28;;;-2.57;80.45
58239;BME280;44037;55.638;37.356;2023-02-11T01:39:10;99119.78;;;-2.55;80.68
58239;BME280;44037;55.638;37.356;2023-02-11T01:41:39;99113.28;;;-2.50;80.71
58239;BME280;44037;55.638;37.356;2023-02-11T01:44:27;99130.75;;;-2.39;80.43
58239;BME280;44037;55.638;37.356;2023-02-11T01:46:54;99127.88;;;-2.29;80.52
58239;BME280;44037;55.638;37.356;2023-02-11T01:49:25;99129.06;;;-2.22;80.79
58239;BME280;44037;55.638;37.356;2023-02-11T01:51:57;99132.88;;;-2.14;80.10
58239;BME280;44037;55.638;37.356;2023-02-11T01:54:29;99124.16;;;-2.03;80.66
58239;BME280;44037;55.638;37.356;2023-02-11T01:57:18;99122.09;;;-1.93;80.56
58239;BME280;44037;55.638;37.356;2023-02-11T02:00:05;99120.72;;;-1.87;80.41
58239;BME280;44037;55.638;37.356;2023-02-11T02:02:36;99119.38;;;-1.80;79.93
58239;BME280;44037;55.638;37.356;2023-02-11T02:05:09;99118.59;;;-1.79;79.47
58239;BME280;44037;55.638;37.356;2023-02-11T02:07:46;99122.88;;;-1.78;79.12
58239;BME280;44037;55.638;37.356;2023-02-11T02:10:18;99114.59;;;-1.74;79.64
58239;BME280;44037;55.638;37.356;2023-02-11T02:12:48;99116.50;;;-1.70;79.58
58239;BME280;44037;55.638;37.356;2023-02-11T02:15:25;99119.25;;;-1.65;79.22
58239;BME280;44037;55.638;37.356;2023-02-11T02:18:17;99121.16;;;-1.61;78.97
58239;BME280;44037;55.638;37.356;2023-02-11T02:21:09;99105.19;;;-1.58;78.75
58239;BME280;44037;55.638;37.356;2023-02-11T02:23:51;99115.50;;;-1.55;78.98
58239;BME280;44037;55.638;37.356;2023-02-11T02:26:53;99118.28;;;-1.50;78.86
58239;BME280;44037;55.638;37.356;2023-02-11T02:32:43;99119.59;;;-1.41;78.17
58239;BME280;44037;55.638;37.356;2023-02-11T02:35:23;99113.56;;;-1.43;77.83
58239;BME280;44037;55.638;37.356;2023-02-11T02:37:55;99116.09;;;-1.43;77.91
58239;BME280;44037;55.638;37.356;2023-02-11T02:40:26;99122.94;;;-1.42;78.06
58239;BME280;44037;55.638;37.356;2023-02-11T02:42:56;99121.19;;;-1.43;77.66
58239;BME280;44037;55.638;37.356;2023-02-11T02:45:24;99111.03;;;-1.43;77.37
58239;BME280;44037;55.638;37.356;2023-02-11T02:47:53;99111.81;;;-1.44;77.07
58239;BME280;44037;55.638;37.356;2023-02-11T02:50:23;99110.81;;;-1.47;77.11
58239;BME280;44037;55.638;37.356;2023-02-11T02:53:02;99111.38;;;-1.53;77.03
58239;BME280;44037;55.638;37.356;2023-02-11T02:55:42;99115.50;;;-1.55;77.01
58239;BME280;44037;55.638;37.356;2023-02-11T02:58:31;99114.56;;;-1.57;77.24
58239;BME280;44037;55.638;37.356;2023-02-11T03:01:05;99117.25;;;-1.54;76.66
58239;BME280;44037;55.638;37.356;2023-02-11T03:03:41;99106.28;;;-1.53;76.50
58239;BME280;44037;55.638;37.356;2023-02-11T03:06:13;99109.63;;;-1.54;76.57
58239;BME280;44037;55.638;37.356;2023-02-11T03:08:47;99108.75;;;-1.55;76.51
58239;BME280;44037;55.638;37.356;2023-02-11T03:11:17;99113.03;;;-1.53;75.98
58239;BME280;44037;55.638;37.356;2023-02-11T03:13:47;99112.28;;;-1.51;76.27
58239;BME280;44037;55.638;37.356;2023-02-11T03:16:17;99113.13;;;-1.52;76.13
58239;BME280;44037;55.638;37.356;2023-02-11T03:18:49;99108.75;;;-1.55;75.68
58239;BME280;44037;55.638;37.356;2023-02-11T03:21:19;99107.09;;;-1.54;76.03
58239;BME280;44037;55.638;37.356;2023-02-11T03:23:49;99107.94;;;-1.53;75.64
58239;BME280;44037;55.638;37.356;2023-02-11T03:26:24;99103.59;;;-1.56;75.71
58239;BME280;44037;55.638;37.356;2023-02-11T03:28:54;99102.59;;;-1.60;75.48
58239;BME280;44037;55.638;37.356;2023-02-11T03:31:29;99092.75;;;-1.70;74.98
58239;BME280;44037;55.638;37.356;2023-02-11T03:34:05;99107.47;;;-1.81;74.66
58239;BME280;44037;55.638;37.356;2023-02-11T03:36:37;99102.56;;;-1.94;75.13
58239;BME280;44037;55.638;37.356;2023-02-11T03:39:12;99100.25;;;-2.06;74.84
58239;BME280;44037;55.638;37.356;2023-02-11T03:41:41;99097.19;;;-2.17;74.47
58239;BME280;44037;55.638;37.356;2023-02-11T03:44:09;99094.16;;;-2.26;74.97
58239;BME280;44037;55.638;37.356;2023-02-11T03:46:43;99087.84;;;-2.35;75.25
58239;BME280;44037;55.638;37.356;2023-02-11T03:49:17;99087.38;;;-2.44;74.97
58239;BME280;44037;55.638;37.356;2023-02-11T03:51:47;99086.16;;;-2.51;75.47
58239;BME280;44037;55.638;37.356;2023-02-11T03:54:20;99083.41;;;-2.55;74.93
58239;BME280;44037;55.638;37.356;2023-02-11T03:56:51;99074.66;;;-2.60;75.45
58239;BME280;44037;55.638;37.356;2023-02-11T03:59:18;99088.69;;;-2.67;75.43
58239;BME280;44037;55.638;37.356;2023-02-11T04:01:46;99081.56;;;-2.74;75.89
58239;BME280;44037;55.638;37.356;2023-02-11T04:04:15;99077.81;;;-2.81;75.56
58239;BME280;44037;55.638;37.356;2023-02-11T04:06:42;99080.00;;;-2.87;75.83
58239;BME280;44037;55.638;37.356;2023-02-11T04:09:09;99082.25;;;-2.94;75.76
58239;BME280;44037;55.638;37.356;2023-02-11T04:11:36;99075.25;;;-2.98;75.80
58239;BME280;44037;55.638;37.356;2023-02-11T04:14:03;99075.00;;;-3.02;76.05
58239;BME280;44037;55.638;37.356;2023-02-11T04:16:30;99081.75;;;-3.03;76.76
58239;BME280;44037;55.638;37.356;2023-02-11T04:18:57;99075.53;;;-3.08;76.36
58239;BME280;44037;55.638;37.356;2023-02-11T04:21:27;99076.25;;;-3.11;76.66
58239;BME280;44037;55.638;37.356;2023-02-11T04:23:54;99082.97;;;-3.11;76.99
58239;BME280;44037;55.638;37.356;2023-02-11T04:26:21;99081.22;;;-3.12;76.90
58239;BME280;44037;55.638;37.356;2023-02-11T04:28:48;99079.47;;;-3.13;77.22
58239;BME280;44037;55.638;37.356;2023-02-11T04:31:15;99073.56;;;-3.14;76.94
58239;BME280;44037;55.638;37.356;2023-02-11T04:33:42;99072.66;;;-3.14;77.32
58239;BME280;44037;55.638;37.356;2023-02-11T04:36:09;99073.31;;;-3.18;76.86
58239;BME280;44037;55.638;37.356;2023-02-11T04:38:38;99065.59;;;-3.20;77.05
58239;BME280;44037;55.638;37.356;2023-02-11T04:41:05;99074.88;;;-3.20;77.23
58239;BME280;44037;55.638;37.356;2023-02-11T04:43:32;99078.97;;;-3.22;77.22
58239;BME280;44037;55.638;37.356;2023-02-11T04:45:59;99066.47;;;-3.19;77.84
58239;BME280;44037;55.638;37.356;2023-02-11T04:48:26;99069.34;;;-3.13;78.03
58239;BME280;44037;55.638;37.356;2023-02-11T04:50:53;99072.28;;;-3.05;78.03
58239;BME280;44037;55.638;37.356;2023-02-11T04:53:20;99076.03;;;-2.99;77.96
58239;BME280;44037;55.638;37.356;2023-02-11T04:55:49;99076.22;;;-2.96;77.86
58239;BME280;44037;55.638;37.356;2023-02-11T04:58:17;99085.00;;;-2.89;78.21
58239;BME280;44037;55.638;37.356;2023-02-11T05:00:44;99073.53;;;-2.82;78.20
58239;BME280;44037;55.638;37.356;2023-02-11T05:03:11;99067.03;;;-2.77;77.57
58239;BME280;44037;55.638;37.356;2023-02-11T05:05:39;99070.75;;;-2.70;78.24
58239;BME280;44037;55.638;37.356;2023-02-11T05:08:06;99070.31;;;-2.63;77.72
58239;BME280;44037;55.638;37.356;2023-02-11T05:10:33;99079.00;;;-2.58;77.63
58239;BME280;44037;55.638;37.356;2023-02-11T05:13:02;99077.78;;;-2.50;77.40
58239;BME280;44037;55.638;37.356;2023-02-11T05:15:30;99073.72;;;-2.46;77.46
58239;BME280;44037;55.638;37.356;2023-02-11T05:17:57;99074.13;;;-2.38;77.72
58239;BME280;44037;55.638;37.356;2023-02-11T05:20:24;99078.00;;;-2.28;77.59
58239;BME280;44037;55.638;37.356;2023-02-11T05:22:51;99068.31;;;-2.19;78.25
58239;BME280;44037;55.638;37.356;2023-02-11T05:25:18;99067.13;;;-2.09;77.92
58239;BME280;44037;55.638;37.356;2023-02-11T05:27:46;99065.78;;;-2.03;77.43
58239;BME280;44037;55.638;37.356;2023-02-11T05:30:14;99075.50;;;-1.94;77.63
58239;BME280;44037;55.638;37.356;2023-02-11T05:32:41;99077.63;;;-1.85;77.59
58239;BME280;44037;55.638;37.356;2023-02-11T05:35:08;99068.63;;;-1.78;77.31
58239;BME280;44037;55.638;37.356;2023-02-11T05:37:35;99070.59;;;-1.73;77.12
58239;BME280;44037;55.638;37.356;2023-02-11T05:40:03;99066.53;;;-1.69;76.84
58239;BME280;44037;55.638;37.356;2023-02-11T05:42:31;99067.44;;;-1.68;76.65
58239;BME280;44037;55.638;37.356;2023-02-11T05:44:58;99061.56;;;-1.67;75.95
58239;BME280;44037;55.638;37.356;2023-02-11T05:47:26;99059.16;;;-1.64;76.41
58239;BME280;44037;55.638;37.356;2023-02-11T05:49:53;99059.44;;;-1.58;76.19
58239;BME280;44037;55.638;37.356;2023-02-11T05:52:21;99063.78;;;-1.56;75.87
58239;BME280;44037;55.638;37.356;2023-02-11T05:54:48;99068.31;;;-1.50;76.33
58239;BME280;44037;55.638;37.356;2023-02-11T05:57:16;99061.78;;;-1.45;75.36
58239;BME280;44037;55.638;37.356;2023-02-11T05:59:43;99067.88;;;-1.41;75.04
58239;BME280;44037;55.638;37.356;2023-02-11T06:02:11;99066.44;;;-1.36;75.66
58239;BME280;44037;55.638;37.356;2023-02-11T06:04:39;99063.31;;;-1.30;75.78
58239;BME280;44037;55.638;37.356;2023-02-11T06:07:07;99067.97;;;-1.21;75.81
58239;BME280;44037;55.638;37.356;2023-02-11T06:09:35;99069.25;;;-1.12;75.75
58239;BME280;44037;55.638;37.356;2023-02-11T06:12:03;99064.59;;;-1.02;74.93
58239;BME280;44037;55.638;37.356;2023-02-11T06:14:31;99065.63;;;-0.99;75.05
58239;BME280;44037;55.638;37.356;2023-02-11T06:16:58;99063.34;;;-0.93;74.82
58239;BME280;44037;55.638;37.356;2023-02-11T06:19:25;99065.22;;;-0.88;74.19
58239;BME280;44037;55.638;37.356;2023-02-11T06:21:54;99063.53;;;-0.88;73.91
58239;BME280;44037;55.638;37.356;2023-02-11T06:24:22;99058.41;;;-0.89;74.17
58239;BME280;44037;55.638;37.356;2023-02-11T06:26:49;99062.88;;;-0.84;74.28
58239;BME280;44037;55.638;37.356;2023-02-11T06:29:16;99058.94;;;-0.77;73.96
58239;BME280;44037;55.638;37.356;2023-02-11T06:31:43;99064.19;;;-0.74;73.62
58239;BME280;44037;55.638;37.356;2023-02-11T06:34:10;99054.22;;;-0.69;73.40
58239;BME280;44037;55.638;37.356;2023-02-11T06:36:38;99052.66;;;-0.66;73.51
58239;BME280;44037;55.638;37.356;2023-02-11T06:39:07;99051.06;;;-0.64;72.67
58239;BME280;44037;55.638;37.356;2023-02-11T06:41:34;99050.22;;;-0.64;72.72
58239;BME280;44037;55.638;37.356;2023-02-11T06:44:02;99045.72;;;-0.50;72.56
58239;BME280;44037;55.638;37.356;2023-02-11T06:46:29;99041.81;;;-0.42;71.82
58239;BME280;44037;55.638;37.356;2023-02-11T06:48:56;99051.28;;;-0.39;71.78
58239;BME280;44037;55.638;37.356;2023-02-11T06:51:23;99045.59;;;-0.34;72.21
58239;BME280;44037;55.638;37.356;2023-02-11T06:53:51;99051.00;;;-0.26;72.02
58239;BME280;44037;55.638;37.356;2023-02-11T06:56:21;99041.22;;;-0.17;71.60
58239;BME280;44037;55.638;37.356;2023-02-11T06:58:51;99050.69;;;-0.12;71.40
58239;BME280;44037;55.638;37.356;2023-02-11T07:01:19;99051.97;;;-0.03;71.21
58239;BME280;44037;55.638;37.356;2023-02-11T07:03:46;99052.09;;;0.01;70.59
58239;BME280;44037;55.638;37.356;2023-02-11T07:06:15;99042.91;;;0.04;70.82
58239;BME280;44037;55.638;37.356;2023-02-11T07:08:43;99052.47;;;0.10;70.71
58239;BME280;44037;55.638;37.356;2023-02-11T07:11:11;99056.59;;;0.06;70.23
58239;BME280;44037;55.638;37.356;2023-02-11T07:13:40;99055.78;;;0.07;70.01
58239;BME280;44037;55.638;37.356;2023-02-11T07:16:09;99053.22;;;0.07;69.89
58239;BME280;44037;55.638;37.356;2023-02-11T07:18:37;99053.75;;;0.20;70.03
58239;BME280;44037;55.638;37.356;2023-02-11T07:21:05;99048.47;;;0.36;69.86
58239;BME280;44037;55.638;37.356;2023-02-11T07:23:33;99041.06;;;0.42;70.00
58239;BME280;44037;55.638;37.356;2023-02-11T07:26:02;99054.59;;;0.41;69.43
58239;BME280;44037;55.638;37.356;2023-02-11T07:28:29;99039.56;;;0.48;69.16
58239;BME280;44037;55.638;37.356;2023-02-11T07:30:57;99039.31;;;0.63;69.20
58239;BME280;44037;55.638;37.356;2023-02-11T07:33:25;99038.78;;;0.71;68.19
58239;BME280;44037;55.638;37.356;2023-02-11T07:35:52;99029.72;;;0.78;68.76
58239;BME280;44037;55.638;37.356;2023-02-11T07:38:19;99029.00;;;0.82;68.57
58239;BME280;44037;55.638;37.356;2023-02-11T07:40:46;99033.09;;;0.79;67.79
58239;BME280;44037;55.638;37.356;2023-02-11T07:43:13;99032.13;;;0.75;67.23
58239;BME280;44037;55.638;37.356;2023-02-11T07:45:40;99037.88;;;0.69;67.61
58239;BME280;44037;55.638;37.356;2023-02-11T07:48:08;99034.31;;;0.66;67.11
58239;BME280;44037;55.638;37.356;2023-02-11T07:50:35;99028.97;;;0.59;67.02
58239;BME280;44037;55.638;37.356;2023-02-11T07:53:02;99028.34;;;0.65;67.20
58239;BME280;44037;55.638;37.356;2023-02-11T07:55:29;99026.50;;;0.84;67.51
58239;BME280;44037;55.638;37.356;2023-02-11T07:57:56;99027.66;;;0.92;66.62
58239;BME280;44037;55.638;37.356;2023-02-11T08:00:23;99020.81;;;0.91;66.72
58239;BME280;44037;55.638;37.356;2023-02-11T08:02:50;99019.38;;;0.98;66.49
58239;BME280;44037;55.638;37.356;2023-02-11T08:05:20;99011.19;;;1.06;66.43
58239;BME280;44037;55.638;37.356;2023-02-11T08:07:49;99014.69;;;1.09;66.75
58239;BME280;44037;55.638;37.356;2023-02-11T08:10:17;99004.59;;;1.12;66.25
58239;BME280;44037;55.638;37.356;2023-02-11T08:12:43;99006.22;;;1.10;65.87
58239;BME280;44037;55.638;37.356;2023-02-11T08:15:11;99004.53;;;1.10;65.67
58239;BME280;44037;55.638;37.356;2023-02-11T08:17:38;99003.13;;;1.18;65.00
58239;BME280;44037;55.638;37.356;2023-02-11T08:20:05;98994.56;;;1.16;65.43
58239;BME280;44037;55.638;37.356;2023-02-11T08:22:34;99003.13;;;1.18;65.12
58239;BME280;44037;55.638;37.356;2023-02-11T08:25:01;98991.19;;;1.17;64.79
58239;BME280;44037;55.638;37.356;2023-02-11T08:27:28;98993.63;;;1.14;64.57
58239;BME280;44037;55.638;37.356;2023-02-11T08:29:55;98984.06;;;1.09;64.54
58239;BME280;44037;55.638;37.356;2023-02-11T08:32:24;98983.72;;;0.99;64.52
58239;BME280;44037;55.638;37.356;2023-02-11T08:34:51;98987.81;;;0.96;64.68
58239;BME280;44037;55.638;37.356;2023-02-11T08:37:19;98981.88;;;0.95;64.91
58239;BME280;44037;55.638;37.356;2023-02-11T08:39:48;98979.31;;;0.95;64.64
58239;BME280;44037;55.638;37.356;2023-02-11T08:42:15;98978.38;;;0.93;64.64
58239;BME280;44037;55.638;37.356;2023-02-11T08:44:42;98972.94;;;0.84;64.50
58239;BME280;44037;55.638;37.356;2023-02-11T08:47:09;98966.00;;;0.80;64.83
58239;BME280;44037;55.638;37.356;2023-02-11T08:49:36;98960.75;;;0.76;65.15
58239;BME280;44037;55.638;37.356;2023-02-11T08:52:05;98952.09;;;0.71;64.88
58239;BME280;44037;55.638;37.356;2023-02-11T08:54:32;98947.84;;;0.72;64.88
58239;BME280;44037;55.638;37.356;2023-02-11T08:57:01;98942.91;;;0.76;64.77
58239;BME280;44037;55.638;37.356;2023-02-11T08:59:28;98946.41;;;0.79;64.89
58239;BME280;44037;55.638;37.356;2023-02-11T09:01:55;98938.88;;;0.82;65.28
58239;BME280;44037;55.638;37.356;2023-02-11T09:04:23;98930.28;;;0.80;65.42
58239;BME280;44037;55.638;37.356;2023-02-11T09:06:50;98922.63;;;0.80;65.44
58239;BME280;44037;55.638;37.356;2023-02-11T09:09:17;98919.28;;;0.81;65.17
58239;BME280;44037;55.638;37.356;2023-02-11T09:11:44;98911.75;;;0.84;64.83
58239;BME280;44037;55.638;37.356;2023-02-11T09:14:17;98896.56;;;0.87;65.16
58239;BME280;44037;55.638;37.356;2023-02-11T09:16:45;98892.63;;;0.97;65.32
58239;BME280;44037;55.638;37.356;2023-02-11T09:19:12;98882.81;;;1.07;65.43
58239;BME280;44037;55.638;37.356;2023-02-11T09:21:39;98870.25;;;1.14;64.77
58239;BME280;44037;55.638;37.356;2023-02-11T09:24:06;98865.25;;;1.17;64.97
58239;BME280;44037;55.638;37.356;2023-02-11T09:26:34;98864.53;;;1.19;64.72
58239;BME280;44037;55.638;37.356;2023-02-11T09:29:03;98856.78;;;1.18;64.93
58239;BME280;44037;55.638;37.356;2023-02-11T09:31:32;98854.34;;;1.21;64.94
58239;BME280;44037;55.638;37.356;2023-02-11T09:34:02;98841.47;;;1.18;64.75
58239;BME280;44037;55.638;37.356;2023-02-11T09:36:31;98850.59;;;1.11;64.76
58239;BME280;44037;55.638;37.356;2023-02-11T09:39:00;98846.06;;;1.02;64.79
58239;BME280;44037;55.638;37.356;2023-02-11T09:41:43;98844.81;;;0.91;64.80
58239;BME280;44037;55.638;37.356;2023-02-11T09:44:19;98843.06;;;0.90;65.49
58239;BME280;44037;55.638;37.356;2023-02-11T09:46:53;98836.34;;;0.92;65.71
58239;BME280;44037;55.638;37.356;2023-02-11T09:49:24;98825.06;;;0.85;64.79
58239;BME280;44037;55.638;37.356;2023-02-11T09:51:57;98825.72;;;0.80;65.18
58239;BME280;44037;55.638;37.356;2023-02-11T09:54:30;98822.19;;;0.76;65.16
58239;BME280;44037;55.638;37.356;2023-02-11T09:56:59;98818.84;;;0.77;65.62
58239;BME280;44037;55.638;37.356;2023-02-11T09:59:27;98823.16;;;0.80;65.82
58239;BME280;44037;55.638;37.356;2023-02-11T10:01:58;98819.00;;;0.82;65.66
58239;BME280;44037;55.638;37.356;2023-02-11T10:04:46;98807.94;;;0.81;65.88
58239;BME280;44037;55.638;37.356;2023-02-11T10:07:22;98812.19;;;0.82;65.85
58239;BME280;44037;55.638;37.356;2023-02-11T10:10:03;98804.50;;;0.81;65.91
58239;BME280;44037;55.638;37.356;2023-02-11T10:12:49;98800.47;;;0.87;65.99
58239;BME280;44037;55.638;37.356;2023-02-11T10:15:26;98793.66;;;0.86;65.83
58239;BME280;44037;55.638;37.356;2023-02-11T10:21:06;98791.88;;;0.84;65.76
58239;BME280;44037;55.638;37.356;2023-02-11T10:23:41;98781.72;;;0.85;65.69
58239;BME280;44037;55.638;37.356;2023-02-11T10:26:12;98771.81;;;0.95;65.69
58239;BME280;44037;55.638;37.356;2023-02-11T10:28:43;98766.94;;;1.01;66.05
58239;BME280;44037;55.638;37.356;2023-02-11T10:31:15;98756.09;;;1.08;65.54
58239;BME280;44037;55.638;37.356;2023-02-11T10:33:45;98757.91;;;1.11;65.59
58239;BME280;44037;55.638;37.356;2023-02-11T10:36:16;98746.25;;;1.19;65.71
58239;BME280;44037;55.638;37.356;2023-02-11T10:38:43;98751.72;;;1.30;65.30
58239;BME280;44037;55.638;37.356;2023-02-11T10:41:15;98740.00;;;1.36;65.45
58239;BME280;44037;55.638;37.356;2023-02-11T10:43:43;98730.72;;;1.38;65.35
58239;BME280;44037;55.638;37.356;2023-02-11T10:46:16;98729.06;;;1.41;64.88
58239;BME280;44037;55.638;37.356;2023-02-11T10:48:45;98724.03;;;1.42;64.88
58239;BME280;44037;55.638;37.356;2023-02-11T10:51:19;98718.91;;;1.42;64.96
58239;BME280;44037;55.638;37.356;2023-02-11T10:53:50;98708.94;;;1.50;64.54
58239;BME280;44037;55.638;37.356;2023-02-11T10:56:26;98700.25;;;1.45;64.14
58239;BME280;44037;55.638;37.356;2023-02-11T10:58:57;98699.25;;;1.40;64.56
58239;BME280;44037;55.638;37.356;2023-02-11T11:01:41;98698.41;;;1.41;64.40
58239;BME280;44037;55.638;37.356;2023-02-11T11:04:39;98693.38;;;1.42;64.05
58239;BME280;44037;55.638;37.356;2023-02-11T11:07:13;98689.13;;;1.43;64.14
58239;BME280;44037;55.638;37.356;2023-02-11T11:09:45;98692.81;;;1.51;64.10
58239;BME280;44037;55.638;37.356;2023-02-11T11:12:31;98690.09;;;1.46;64.20
58239;BME280;44037;55.638;37.356;2023-02-11T11:15:01;98675.66;;;1.47;63.83
58239;BME280;44037;55.638;37.356;2023-02-11T11:17:30;98679.94;;;1.48;63.95
58239;BME280;44037;55.638;37.356;2023-02-11T11:20:17;98672.06;;;1.42;64.03
58239;BME280;44037;55.638;37.356;2023-02-11T11:22:47;98663.50;;;1.40;63.61
58239;BME280;44037;55.638;37.356;2023-02-11T11:25:26;98658.56;;;1.44;63.21
58239;BME280;44037;55.638;37.356;2023-02-11T11:27:56;98656.03;;;1.46;62.78
58239;BME280;44037;55.638;37.356;2023-02-11T11:30:27;98650.81;;;1.41;61.91
58239;BME280;44037;55.638;37.356;2023-02-11T11:32:57;98646.09;;;1.26;62.74
58239;BME280;44037;55.638;37.356;2023-02-11T11:35:26;98641.28;;;1.08;62.87
58239;BME280;44037;55.638;37.356;2023-02-11T11:37:57;98631.28;;;0.87;62.88
58239;BME280;44037;55.638;37.356;2023-02-11T11:40:27;98625.59;;;0.68;63.69
58239;BME280;44037;55.638;37.356;2023-02-11T11:43:12;98631.19;;;0.56;64.09
58239;BME280;44037;55.638;37.356;2023-02-11T11:45:53;98621.72;;;0.54;64.47
58239;BME280;44037;55.638;37.356;2023-02-11T11:48:24;98598.06;;;0.58;64.58
58239;BME280;44037;55.638;37.356;2023-02-11T11:50:54;98595.50;;;0.56;65.24
58239;BME280;44037;55.638;37.356;2023-02-11T11:53:30;98605.56;;;0.53;64.76
58239;BME280;44037;55.638;37.356;2023-02-11T11:56:02;98606.31;;;0.51;65.29
58239;BME280;44037;55.638;37.356;2023-02-11T11:58:32;98599.41;;;0.47;65.33
58239;BME280;44037;55.638;37.356;2023-02-11T12:01:08;98594.31;;;0.47;65.15
58239;BME280;44037;55.638;37.356;2023-02-11T12:04:10;98581.72;;;0.51;65.31
58239;BME280;44037;55.638;37.356;2023-02-11T12:06:52;98585.19;;;0.53;65.02
58239;BME280;44037;55.638;37.356;2023-02-11T12:09:29;98581.00;;;0.55;64.95
58239;BME280;44037;55.638;37.356;2023-02-11T12:12:19;98580.94;;;0.54;64.66
58239;BME280;44037;55.638;37.356;2023-02-11T12:14:58;98579.19;;;0.53;65.12
58239;BME280;44037;55.638;37.356;2023-02-11T12:17:39;98574.03;;;0.50;64.50
58239;BME280;44037;55.638;37.356;2023-02-11T12:20:18;98573.00;;;0.44;64.81
58239;BME280;44037;55.638;37.356;2023-02-11T12:23:02;98560.03;;;0.38;64.69
58239;BME280;44037;55.638;37.356;2023-02-11T12:25:42;98563.31;;;0.34;64.86
58239;BME280;44037;55.638;37.356;2023-02-11T12:28:20;98552.06;;;0.27;65.09
58239;BME280;44037;55.638;37.356;2023-02-11T12:31:09;98562.81;;;0.19;65.39
58239;BME280;44037;55.638;37.356;2023-02-11T12:36:42;98542.25;;;0.12;65.21
58239;BME280;44037;55.638;37.356;2023-02-11T12:39:23;98531.97;;;0.11;65.19
58239;BME280;44037;55.638;37.356;2023-02-11T12:45:12;98511.34;;;0.03;65.71
58239;BME280;44037;55.638;37.356;2023-02-11T12:47:51;98513.84;;;0.02;65.58
58239;BME280;44037;55.638;37.356;2023-02-11T12:50:24;98503.63;;;0.00;66.20
58239;BME280;44037;55.638;37.356;2023-02-11T12:53:08;98494.09;;;-0.06;65.90
58239;BME280;44037;55.638;37.356;2023-02-11T12:55:44;98484.66;;;-0.08;65.99
58239;BME280;44037;55.638;37.356;2023-02-11T12:58:16;98480.28;;;-0.12;66.39
58239;BME280;44037;55.638;37.356;2023-02-11T13:00:47;98475.09;;;-0.16;66.59
58239;BME280;44037;55.638;37.356;2023-02-11T13:03:20;98466.66;;;-0.14;66.93
58239;BME280;44037;55.638;37.356;2023-02-11T13:05:51;98460.69;;;-0.15;66.82
58239;BME280;44037;55.638;37.356;2023-02-11T13:08:22;98446.28;;;-0.14;67.09
58239;BME280;44037;55.638;37.356;2023-02-11T13:10:54;98441.19;;;-0.14;66.81
58239;BME280;44037;55.638;37.356;2023-02-11T13:13:26;98431.84;;;-0.14;67.02
58239;BME280;44037;55.638;37.356;2023-02-11T13:15:59;98422.56;;;-0.13;67.10
58239;BME280;44037;55.638;37.356;2023-02-11T13:18:38;98414.06;;;-0.12;67.40
58239;BME280;44037;55.638;37.356;2023-02-11T13:21:25;98410.81;;;-0.08;67.67
58239;BME280;44037;55.638;37.356;2023-02-11T13:24:03;98406.66;;;-0.06;67.69
58239;BME280;44037;55.638;37.356;2023-02-11T13:26:39;98397.22;;;-0.09;67.75